createdAt,value
2023-04-08T00:00:13.430Z,87.32
2023-04-08T00:05:37.102Z,87.75
2023-04-08T00:08:07.549Z,87.08
2023-04-08T00:10:35.007Z,87.98
2023-04-08T00:13:14.818Z,87.58
2023-04-08T00:15:43.090Z,87.70
2023-04-08T00:18:13.078Z,86.37
2023-04-08T00:20:43.922Z,85.80
2023-04-08T00:23:33.539Z,86.00
2023-04-08T00:26:04.077Z,86.23
2023-04-08T00:28:38.186Z,87.08
2023-04-08T00:31:12.307Z,86.93
2023-04-08T00:33:55.695Z,86.24
2023-04-08T00:39:12.043Z,86.67
2023-04-08T00:41:43.056Z,86.36
2023-04-08T00:44:26.711Z,86.75
2023-04-08T00:47:18.512Z,85.99
2023-04-08T00:50:36.923Z,86.24
2023-04-08T00:53:25.836Z,86.72
2023-04-08T00:55:58.997Z,86.00
2023-04-08T00:58:29.788Z,85.02
2023-04-08T01:01:43.408Z,85.09
2023-04-08T01:04:17.136Z,85.21
2023-04-08T01:06:55.954Z,85.37
2023-04-08T01:09:28.816Z,86.01
2023-04-08T01:12:23.025Z,85.90
2023-04-08T01:15:03.514Z,84.80
2023-04-08T01:17:33.734Z,85.10
2023-04-08T01:20:18.059Z,86.76
2023-04-08T01:26:24.088Z,84.59
2023-04-08T01:29:23.065Z,85.47
2023-04-08T01:34:47.589Z,85.42
2023-04-08T01:37:25.916Z,86.07
2023-04-08T01:40:06.887Z,86.29
2023-04-08T01:42:38.030Z,87.03
2023-04-08T01:45:15.977Z,86.87
2023-04-08T01:47:50.517Z,86.90
2023-04-08T01:53:09.746Z,87.75
2023-04-08T01:55:43.883Z,86.47
2023-04-08T01:59:15.411Z,86.80
2023-04-08T02:01:33.587Z,87.51
2023-04-08T02:04:15.854Z,87.40
2023-04-08T02:06:49.994Z,86.61
2023-04-08T02:09:53.002Z,87.19
2023-04-08T02:12:32.420Z,87.73
2023-04-08T02:15:28.360Z,88.41
2023-04-08T02:18:12.235Z,88.46
2023-04-08T02:21:14.268Z,88.13
2023-04-08T02:23:52.624Z,88.86
2023-04-08T02:26:23.661Z,88.10
2023-04-08T02:28:57.215Z,88.21
2023-04-08T02:31:39.277Z,88.42
2023-04-08T02:34:57.580Z,88.86
2023-04-08T02:38:17.916Z,88.35
2023-04-08T02:41:54.448Z,88.46
2023-04-08T02:44:38.763Z,89.92
2023-04-08T02:50:20.578Z,90.49
2023-04-08T02:52:48.192Z,90.09
2023-04-08T02:55:19.531Z,89.63
2023-04-08T02:57:50.127Z,90.41
2023-04-08T03:00:31.477Z,89.54
2023-04-08T03:03:07.600Z,89.66
2023-04-08T03:12:34.771Z,90.70
2023-04-08T03:15:02.232Z,91.29
2023-04-08T03:17:38.060Z,91.66
2023-04-08T03:20:30.778Z,91.22
2023-04-08T03:23:15.656Z,91.90
2023-04-08T03:26:09.533Z,90.77
2023-04-08T03:28:46.635Z,92.07
2023-04-08T03:32:42.584Z,91.36
2023-04-08T03:34:27.293Z,91.68
2023-04-08T03:36:54.246Z,92.53
2023-04-08T03:39:20.947Z,92.88
2023-04-08T03:41:47.909Z,92.39
2023-04-08T03:44:14.718Z,92.40
2023-04-08T03:46:44.597Z,93.28
2023-04-08T03:49:11.615Z,92.77
2023-04-08T03:51:48.172Z,91.86
2023-04-08T03:54:26.494Z,91.60
2023-04-08T03:56:53.335Z,91.52
2023-04-08T03:59:20.030Z,92.15
2023-04-08T04:01:47.906Z,92.37
2023-04-08T04:04:15.128Z,92.97
2023-04-08T04:06:42.258Z,91.89
2023-04-08T04:09:09.048Z,92.99
2023-04-08T04:11:36.180Z,94.33
2023-04-08T04:14:03.282Z,93.39
2023-04-08T04:16:32.350Z,93.67
2023-04-08T04:18:59.837Z,93.42
2023-04-08T04:21:27.415Z,93.79
2023-04-08T04:23:57.378Z,93.70
2023-04-08T04:26:24.168Z,93.93
2023-04-08T04:28:53.323Z,94.16
2023-04-08T04:31:22.039Z,94.47
2023-04-08T04:33:49.612Z,94.97
2023-04-08T04:36:16.335Z,93.79
2023-04-08T04:38:43.681Z,94.13
2023-04-08T04:41:10.809Z,95.01
2023-04-08T04:43:48.351Z,94.07
2023-04-08T04:46:23.300Z,94.59
2023-04-08T04:48:54.868Z,94.12
2023-04-08T04:51:27.890Z,94.64
2023-04-08T04:54:10.214Z,94.85
2023-04-08T04:56:37.174Z,94.54
2023-04-08T04:59:09.617Z,94.02
2023-04-08T05:01:36.860Z,93.94
2023-04-08T05:04:03.627Z,93.81
2023-04-08T05:06:31.191Z,94.31
2023-04-08T05:08:57.992Z,93.36
2023-04-08T05:11:24.951Z,94.38
2023-04-08T05:13:51.814Z,93.69
2023-04-08T05:16:18.807Z,93.27
2023-04-08T05:18:46.033Z,92.11
2023-04-08T05:21:12.802Z,92.11
2023-04-08T05:23:39.852Z,91.55
2023-04-08T05:26:09.735Z,91.83
2023-04-08T05:28:36.702Z,90.08
2023-04-08T05:31:04.119Z,90.59
2023-04-08T05:33:31.172Z,88.47
2023-04-08T05:35:58.001Z,87.58
2023-04-08T05:38:25.201Z,86.98
2023-04-08T05:40:52.222Z,85.71
2023-04-08T05:43:22.132Z,86.24
2023-04-08T05:45:48.977Z,85.50
2023-04-08T05:48:23.179Z,85.37
2023-04-08T05:50:49.976Z,85.95
2023-04-08T05:53:17.823Z,85.10
2023-04-08T05:55:47.811Z,83.70
2023-04-08T05:58:15.353Z,84.80
2023-04-08T06:00:45.112Z,83.72
2023-04-08T06:03:12.085Z,83.73
2023-04-08T06:05:39.336Z,81.73
2023-04-08T06:08:21.552Z,82.39
2023-04-08T06:10:52.890Z,83.44
2023-04-08T06:14:07.962Z,83.45
2023-04-08T06:16:21.123Z,83.15
2023-04-08T06:18:48.596Z,81.21
2023-04-08T06:21:15.946Z,81.47
2023-04-08T06:23:42.738Z,80.39
2023-04-08T06:26:10.113Z,78.28
2023-04-08T06:28:37.006Z,78.67
2023-04-08T06:31:05.120Z,78.85
2023-04-08T06:33:31.874Z,78.70
2023-04-08T06:36:06.585Z,77.87
2023-04-08T06:38:34.061Z,76.87
2023-04-08T06:41:07.732Z,76.51
2023-04-08T06:43:35.790Z,75.00
2023-04-08T06:46:02.603Z,75.13
2023-04-08T06:49:23.034Z,75.63
2023-04-08T06:54:47.728Z,72.72
2023-04-08T06:57:23.473Z,72.65
2023-04-08T06:59:53.937Z,73.50
2023-04-08T07:02:23.286Z,73.84
2023-04-08T07:04:52.868Z,72.78
2023-04-08T07:07:19.952Z,71.84
2023-04-08T07:09:47.005Z,71.73
2023-04-08T07:12:14.087Z,72.67
2023-04-08T07:14:48.404Z,70.81
2023-04-08T07:17:24.111Z,70.62
2023-04-08T07:19:51.129Z,69.69
2023-04-08T07:22:18.679Z,68.54
2023-04-08T07:24:50.101Z,69.80
2023-04-08T07:27:17.554Z,69.14
2023-04-08T07:29:44.628Z,67.93
2023-04-08T07:32:11.429Z,67.49
2023-04-08T07:34:38.362Z,68.37
2023-04-08T07:37:06.640Z,67.61
2023-04-08T07:39:33.697Z,67.87
2023-04-08T07:42:00.996Z,68.21
2023-04-08T07:44:27.659Z,66.27
2023-04-08T07:46:57.811Z,65.40
2023-04-08T07:49:31.460Z,63.73
2023-04-08T07:52:08.972Z,63.66
2023-04-08T07:54:38.357Z,64.24
2023-04-08T07:57:05.177Z,64.90
2023-04-08T07:59:32.559Z,63.69
2023-04-08T08:01:59.422Z,63.44
2023-04-08T08:04:26.517Z,61.59
2023-04-08T08:06:53.668Z,63.19
2023-04-08T08:09:21.036Z,61.44
2023-04-08T08:11:47.832Z,60.04
2023-04-08T08:14:17.827Z,59.13
2023-04-08T08:16:44.898Z,58.83
2023-04-08T08:19:37.384Z,57.93
2023-04-08T08:22:04.063Z,57.02
2023-04-08T08:24:31.689Z,56.71
2023-04-08T08:26:58.862Z,55.21
2023-04-08T08:29:25.928Z,55.55
2023-04-08T08:31:53.189Z,54.26
2023-04-08T08:34:27.377Z,54.11
2023-04-08T08:36:54.112Z,52.92
2023-04-08T08:39:20.992Z,55.07
2023-04-08T08:41:47.714Z,53.39
2023-04-08T08:44:17.444Z,53.87
2023-04-08T08:46:45.322Z,52.40
2023-04-08T08:49:12.613Z,51.76
2023-04-08T08:51:42.072Z,50.97
2023-04-08T08:54:09.243Z,52.42
2023-04-08T08:56:39.665Z,53.20
2023-04-08T08:59:06.593Z,51.90
2023-04-08T09:01:35.194Z,52.50
2023-04-08T09:04:18.551Z,50.37
2023-04-08T09:07:13.495Z,49.14
2023-04-08T09:09:51.945Z,49.53
2023-04-08T09:12:18.965Z,49.60
2023-04-08T09:14:46.534Z,50.48
2023-04-08T09:17:13.704Z,49.51
2023-04-08T09:19:40.704Z,48.27
2023-04-08T09:22:11.052Z,49.24
2023-04-08T09:24:38.488Z,49.22
2023-04-08T09:27:05.970Z,47.00
2023-04-08T09:29:36.466Z,46.77
2023-04-08T09:32:05.433Z,48.18
2023-04-08T09:34:34.500Z,49.61
2023-04-08T09:37:01.994Z,48.60
2023-04-08T09:39:28.806Z,48.83
2023-04-08T09:42:01.400Z,48.03
2023-04-08T09:44:31.552Z,48.63
2023-04-08T09:47:01.552Z,48.44
2023-04-08T09:49:41.182Z,47.88
2023-04-08T09:52:15.994Z,48.57
2023-04-08T09:54:53.771Z,47.96
2023-04-08T09:57:43.129Z,48.26
2023-04-08T10:00:18.741Z,48.12
2023-04-08T10:02:49.070Z,46.80
2023-04-08T10:05:19.837Z,47.10
2023-04-08T10:07:48.365Z,45.93
2023-04-08T10:10:16.420Z,44.08
2023-04-08T10:12:44.230Z,45.96
2023-04-08T10:15:27.256Z,44.31
2023-04-08T10:17:56.195Z,45.39
2023-04-08T10:20:36.377Z,45.87
2023-04-08T10:23:19.847Z,45.14
2023-04-08T10:25:49.676Z,45.02
2023-04-08T10:28:19.203Z,44.90
2023-04-08T10:30:47.358Z,45.22
2023-04-08T10:33:20.224Z,42.62
2023-04-08T10:36:19.679Z,43.59
2023-04-08T10:38:47.873Z,44.13
2023-04-08T10:41:24.621Z,43.34
2023-04-08T10:43:52.100Z,42.92
2023-04-08T10:46:19.273Z,42.88
2023-04-08T10:49:00.899Z,43.59
2023-04-08T10:51:33.744Z,41.72
2023-04-08T10:54:16.814Z,42.60
2023-04-08T10:56:49.893Z,42.13
2023-04-08T10:59:29.926Z,41.44
2023-04-08T11:01:57.558Z,41.93
2023-04-08T11:04:26.038Z,41.84
2023-04-08T11:06:53.169Z,41.61
2023-04-08T11:09:20.359Z,42.47
2023-04-08T11:11:47.554Z,42.70
2023-04-08T11:14:15.102Z,41.26
2023-04-08T11:16:42.725Z,41.72
2023-04-08T11:19:09.596Z,41.09
2023-04-08T11:21:38.636Z,39.94
2023-04-08T11:24:12.561Z,42.04
2023-04-08T11:26:40.012Z,41.03
2023-04-08T11:29:07.224Z,41.10
2023-04-08T11:31:34.720Z,41.18
2023-04-08T11:34:04.912Z,40.51
2023-04-08T11:36:31.743Z,40.74
2023-04-08T11:38:59.019Z,40.36
2023-04-08T11:41:41.822Z,43.41
2023-04-08T11:44:08.843Z,45.15
2023-04-08T11:46:42.485Z,49.47
2023-04-08T11:49:10.189Z,51.19
2023-04-08T11:51:56.568Z,53.16
2023-04-08T11:54:32.334Z,54.94
2023-04-08T11:56:59.714Z,56.32
2023-04-08T11:59:28.923Z,57.59
2023-04-08T12:01:56.489Z,58.62
2023-04-08T12:04:23.630Z,59.04
2023-04-08T12:06:53.651Z,61.64
2023-04-08T12:09:20.604Z,62.87
2023-04-08T12:11:47.423Z,62.47
2023-04-08T12:14:15.073Z,65.88
2023-04-08T12:16:44.843Z,69.93
2023-04-08T12:19:11.795Z,72.04
2023-04-08T12:21:41.160Z,70.24
2023-04-08T12:24:11.980Z,74.15
2023-04-08T12:26:41.893Z,75.66
2023-04-08T12:29:11.881Z,75.78
2023-04-08T12:31:40.848Z,75.96
2023-04-08T12:34:17.007Z,77.70
2023-04-08T12:36:45.081Z,74.32
2023-04-08T12:39:15.391Z,77.13
2023-04-08T12:41:42.748Z,73.21
2023-04-08T12:44:13.004Z,71.58
2023-04-08T12:46:40.181Z,72.92
2023-04-08T12:49:48.759Z,73.94
2023-04-08T12:52:50.779Z,72.37
2023-04-08T12:55:18.892Z,69.71
2023-04-08T12:57:47.883Z,70.45
2023-04-08T13:00:17.279Z,70.79
2023-04-08T13:03:06.737Z,70.53
2023-04-08T13:05:43.152Z,69.01
2023-04-08T13:08:15.288Z,68.03
2023-04-08T13:10:43.533Z,66.16
2023-04-08T13:13:18.736Z,65.73
2023-04-08T13:15:45.631Z,65.92
2023-04-08T13:18:15.753Z,67.34
2023-04-08T13:20:42.581Z,65.49
2023-04-08T13:23:09.665Z,67.11
2023-04-08T13:25:36.347Z,64.64
2023-04-08T13:28:07.657Z,65.82
2023-04-08T13:30:34.493Z,65.16
2023-04-08T13:33:01.754Z,66.96
2023-04-08T13:35:28.648Z,68.65
2023-04-08T13:37:55.397Z,65.69
2023-04-08T13:40:22.087Z,66.23
2023-04-08T13:42:48.793Z,64.28
2023-04-08T13:45:16.773Z,65.78
2023-04-08T13:47:43.449Z,63.94
2023-04-08T13:50:10.601Z,65.18
2023-04-08T13:52:37.536Z,65.37
2023-04-08T13:55:13.930Z,65.54
2023-04-08T13:57:43.756Z,64.95
2023-04-08T14:00:11.284Z,64.65
2023-04-08T14:02:40.926Z,64.37
2023-04-08T14:05:08.641Z,62.98
2023-04-08T14:07:35.476Z,62.77
2023-04-08T14:10:04.490Z,60.23
2023-04-08T14:12:31.239Z,62.29
2023-04-08T14:14:58.443Z,63.78
2023-04-08T14:17:25.346Z,64.69
2023-04-08T14:19:52.271Z,64.87
2023-04-08T14:22:25.388Z,65.60
2023-04-08T14:24:52.201Z,66.78
2023-04-08T14:27:19.766Z,65.52
2023-04-08T14:29:46.492Z,64.13
2023-04-08T14:32:13.367Z,64.47
2023-04-08T14:34:40.817Z,65.43
2023-04-08T14:37:08.147Z,62.86
2023-04-08T14:39:35.212Z,63.30
2023-04-08T14:42:17.983Z,64.03
2023-04-08T14:44:45.211Z,63.45
2023-04-08T14:47:13.107Z,61.97
2023-04-08T14:49:43.050Z,61.11
2023-04-08T14:52:13.152Z,62.34
2023-04-08T14:54:40.143Z,62.23
2023-04-08T14:57:09.092Z,63.18
2023-04-08T14:59:36.095Z,62.94
2023-04-08T15:02:03.131Z,62.22
2023-04-08T15:04:30.177Z,61.48
2023-04-08T15:07:10.014Z,62.32
2023-04-08T15:09:37.219Z,62.32
2023-04-08T15:12:08.973Z,61.42
2023-04-08T15:14:36.671Z,63.30
2023-04-08T15:17:03.815Z,63.83
2023-04-08T15:19:30.885Z,63.17
2023-04-08T15:21:58.308Z,63.75
2023-04-08T15:24:25.714Z,63.44
2023-04-08T15:27:01.926Z,63.76
2023-04-08T15:29:32.347Z,65.74
2023-04-08T15:31:59.809Z,65.89
2023-04-08T15:34:27.292Z,65.58
2023-04-08T15:36:57.054Z,66.98
2023-04-08T15:39:27.136Z,66.96
2023-04-08T15:41:53.924Z,66.25
2023-04-08T15:44:20.688Z,67.94
2023-04-08T15:46:47.869Z,67.62
2023-04-08T15:49:15.038Z,66.19
2023-04-08T15:51:44.881Z,66.99
2023-04-08T15:54:12.133Z,65.39
2023-04-08T15:56:39.497Z,66.98
2023-04-08T15:59:06.312Z,66.04
2023-04-08T16:01:36.682Z,66.47
2023-04-08T16:04:04.285Z,65.16
2023-04-08T16:06:31.542Z,67.11
2023-04-08T16:09:01.378Z,65.38
2023-04-08T16:11:28.981Z,66.00
2023-04-08T16:14:01.586Z,66.12
2023-04-08T16:16:29.035Z,65.99
2023-04-08T16:18:56.845Z,65.84
2023-04-08T16:21:24.385Z,65.37
2023-04-08T16:23:52.216Z,66.35
2023-04-08T16:26:41.440Z,65.90
2023-04-08T16:29:08.575Z,68.03
2023-04-08T16:31:35.754Z,67.74
2023-04-08T16:34:09.170Z,69.00
2023-04-08T16:36:35.998Z,70.79
2023-04-08T16:39:03.667Z,76.34
2023-04-08T16:41:30.866Z,79.84
2023-04-08T16:44:00.383Z,79.27
2023-04-08T16:46:27.482Z,75.52
2023-04-08T16:48:54.616Z,77.96
2023-04-08T16:51:24.566Z,82.45
2023-04-08T16:53:51.691Z,86.09
2023-04-08T16:56:19.301Z,87.09
2023-04-08T16:58:47.444Z,87.46
2023-04-08T17:01:15.251Z,90.74
2023-04-08T17:03:48.788Z,89.05
2023-04-08T17:06:16.447Z,91.83
2023-04-08T17:08:46.484Z,96.52
2023-04-08T17:11:14.914Z,98.20
2023-04-08T17:13:57.340Z,100.00
2023-04-08T17:16:26.960Z,99.85
2023-04-08T17:19:36.187Z,99.20
2023-04-08T17:22:04.586Z,100.00
2023-04-08T17:24:45.947Z,100.00
2023-04-08T17:27:45.535Z,100.00
2023-04-08T17:30:13.937Z,100.00
2023-04-08T17:33:01.446Z,100.00
2023-04-08T17:35:30.773Z,100.00
2023-04-08T17:38:08.371Z,100.00
2023-04-08T17:41:00.273Z,100.00
2023-04-08T17:44:09.448Z,100.00
2023-04-08T17:47:00.424Z,100.00
2023-04-08T17:49:40.261Z,100.00
2023-04-08T17:52:29.174Z,100.00
2023-04-08T17:55:12.685Z,100.00
2023-04-08T17:58:05.882Z,100.00
2023-04-08T18:00:58.987Z,100.00
2023-04-08T18:03:56.066Z,100.00
2023-04-08T18:06:36.975Z,100.00
2023-04-08T18:09:21.282Z,100.00
2023-04-08T18:12:00.683Z,100.00
2023-04-08T18:14:41.478Z,100.00
2023-04-08T18:17:11.685Z,100.00
2023-04-08T18:19:38.973Z,100.00
2023-04-08T18:22:06.473Z,100.00
2023-04-08T18:24:37.627Z,100.00
2023-04-08T18:27:11.981Z,100.00
2023-04-08T18:30:07.384Z,100.00
2023-04-08T18:32:51.210Z,100.00
2023-04-08T18:36:06.522Z,100.00
2023-04-08T18:38:29.463Z,100.00
2023-04-08T18:41:21.547Z,100.00
2023-04-08T18:44:01.847Z,100.00
2023-04-08T18:46:30.092Z,100.00
2023-04-08T18:49:05.056Z,100.00
2023-04-08T18:54:15.757Z,100.00
2023-04-08T18:59:40.520Z,100.00
2023-04-08T19:02:32.513Z,100.00
2023-04-08T19:05:20.015Z,100.00
2023-04-08T19:08:13.323Z,100.00
2023-04-08T19:11:37.749Z,100.00
2023-04-08T19:14:14.750Z,100.00
2023-04-08T19:20:35.752Z,100.00
2023-04-08T19:24:22.559Z,100.00
2023-04-08T19:26:15.494Z,100.00
2023-04-08T19:29:23.733Z,100.00
2023-04-08T19:31:50.740Z,100.00
2023-04-08T19:34:26.816Z,100.00
2023-04-08T19:36:54.578Z,100.00
2023-04-08T19:39:35.240Z,100.00
2023-04-08T19:42:14.266Z,100.00
2023-04-08T19:45:12.072Z,100.00
2023-04-08T19:47:57.870Z,100.00
2023-04-08T19:50:30.141Z,100.00
2023-04-08T19:53:28.616Z,100.00
2023-04-08T19:56:10.835Z,100.00
2023-04-08T19:58:44.583Z,100.00
2023-04-08T20:01:24.211Z,100.00
2023-04-08T20:03:59.032Z,100.00
2023-04-08T20:06:37.140Z,100.00
2023-04-08T20:09:09.088Z,100.00
2023-04-08T20:14:59.583Z,100.00
2023-04-08T20:17:39.901Z,100.00
2023-04-08T20:22:59.152Z,100.00
2023-04-08T20:31:54.329Z,100.00
2023-04-08T20:34:34.782Z,100.00
2023-04-08T20:40:33.508Z,100.00
2023-04-08T20:43:14.536Z,100.00
2023-04-08T20:45:45.073Z,100.00
2023-04-08T20:48:35.520Z,100.00
2023-04-08T20:51:15.489Z,100.00
2023-04-08T20:53:59.536Z,100.00
2023-04-08T20:57:20.720Z,100.00
2023-04-08T20:59:46.487Z,100.00
2023-04-08T21:02:30.713Z,100.00
2023-04-08T21:07:56.763Z,100.00
2023-04-08T21:10:40.264Z,100.00
2023-04-08T21:13:26.778Z,100.00
2023-04-08T21:21:57.797Z,100.00
2023-04-08T21:24:53.628Z,100.00
2023-04-08T21:27:23.861Z,100.00
2023-04-08T21:33:17.745Z,100.00
2023-04-08T21:43:05.246Z,100.00
2023-04-08T21:43:08.881Z,100.00
2023-04-08T21:46:10.413Z,100.00
2023-04-08T21:49:15.890Z,100.00
2023-04-08T21:52:41.543Z,100.00
2023-04-08T21:55:20.190Z,100.00
2023-04-08T21:58:12.050Z,100.00
2023-04-08T22:00:52.541Z,100.00
2023-04-08T22:03:32.703Z,100.00
2023-04-08T22:06:01.653Z,100.00
2023-04-08T22:08:35.409Z,100.00
2023-04-08T22:11:20.986Z,100.00
2023-04-08T22:14:15.530Z,100.00
2023-04-08T22:20:14.998Z,100.00
2023-04-08T22:22:53.449Z,100.00
2023-04-08T22:26:13.479Z,100.00
2023-04-08T22:28:55.643Z,100.00
2023-04-08T22:31:27.218Z,100.00
2023-04-08T22:33:57.385Z,100.00
2023-04-08T22:36:37.010Z,100.00
2023-04-08T22:39:34.818Z,100.00
2023-04-08T22:42:04.126Z,100.00
2023-04-08T22:44:36.902Z,100.00
2023-04-08T22:47:12.610Z,100.00
2023-04-08T22:49:45.709Z,100.00
2023-04-08T22:52:22.671Z,100.00
2023-04-08T22:54:50.659Z,100.00
2023-04-08T22:57:18.522Z,100.00
2023-04-08T22:59:52.181Z,100.00
2023-04-08T23:02:34.680Z,100.00
2023-04-08T23:05:02.372Z,100.00
2023-04-08T23:07:40.291Z,100.00
2023-04-08T23:10:08.537Z,100.00
2023-04-08T23:12:44.223Z,100.00
2023-04-08T23:15:15.710Z,100.00
2023-04-08T23:17:46.468Z,100.00
2023-04-08T23:20:35.565Z,100.00
2023-04-08T23:23:06.952Z,100.00
2023-04-08T23:25:40.239Z,100.00
2023-04-08T23:28:25.930Z,100.00
2023-04-08T23:34:16.908Z,100.00
2023-04-08T23:36:51.539Z,100.00
2023-04-08T23:39:22.504Z,100.00
2023-04-08T23:42:00.665Z,100.00
2023-04-08T23:44:37.659Z,100.00
2023-04-08T23:47:13.579Z,100.00
2023-04-08T23:49:53.406Z,100.00
2023-04-08T23:52:30.824Z,100.00
2023-04-08T23:55:03.754Z,100.00
2023-04-08T23:57:34.933Z,100.00
